Crystal Bay, MN (55323)

8:30 AM CST on February 08, 2016 (GMT -0600)
Carman Bay | | Change Station
CLOSE
Current Station
Personal Weather Station
Location: Navarre, MN
Elevation: 935 ft
Nearby Weather Stations
Active Advisory: Winter Weather Advisory

Elev 935 ft 44.93 °N, 93.61 °W | Updated 2 seconds ago

Overcast
Overcast
10.5 °F
Feels Like 1 °F
N
5.8
Wind Variable Wind from ESE
Gusts 5.8 mph

Today
High -- | Low -- °F
--% Chance of Precip.
Yesterday
High -- | Low -- °F
Precip. -- in
Pressure 29.93 in
Visibility 8.0 miles
Clouds Few 1700 ft
Overcast 3500 ft
Windchill 1 °F
Dew Point 2 °F
Humidity 67%
Rainfall 0.00 in
Snow Depth Not available.
7:25 AM 5:31 PM
Waning Crescent, 0% visible
METAR KFCM 081353Z 33013G23KT 8SM FEW017 OVC035 M11/M16 A2988 RMK AO2 SLP135 T11111161
Pressure 29.93 in
Visibility 8.0 miles
Clouds Few 1700 ft
Overcast 3500 ft
Windchill 1 °F
Dew Point 2 °F
Humidity 67%
Rainfall 0.00 in
Snow Depth Not available.
7:25 AM 5:31 PM
Waning Crescent, 0% visible
METAR KFCM 081353Z 33013G23KT 8SM FEW017 OVC035 M11/M16 A2988 RMK AO2 SLP135 T11111161

10-Day Weather Forecast

Almanac

Astronomy

Feb. 08, 2016 Rise Set
Actual Time
Civil Twilight
Nautical Twilight
Astronomical Twilight
Moon
Length of Visible Light
Length of Day
Tomorrow will be .
, % of the Moon is Illuminated

Today's Extremes

State Highs State Lows

Community

WunderPhotos

Upload Photos

1,891,437 photos uploaded!

WunderBlog® & News

Nearby

Air Quality

  Air Quality AQ Index Pollutant
Not available.

Snow Depth

Station Depth Elevation

Earthquake Activity

City Distance Mag. Time & Date
Minimum magnitude displayed is 2.5.

Coastal Water Temperatures

Place Temperature

Stations

Nearby Weather Stations

Station Location Temp. Windchill Dew Point Humidity Wind Precip. Elev Updated Type
                   

Watches & Warnings

Winter Weather Advisory
Issued: 3:47 AM CST Feb. 8, 2016 – National Weather Service

... Winter Weather Advisory remains in effect until noon CST
today...

* expect occasional light snow through noon.

* Additional snow accumulations of less than in inch expected.

* Winds gusting as high as 30 mph will cause areas of blowing
snow.

* Plan on reduced visibility at times and slippery Road
conditions.

Precautionary/preparedness actions...

A Winter Weather Advisory for snow means periods of snow will
cause primarily travel difficulties. Be prepared for snow covered
roads and limited visibilities... and use caution while driving.
The latest Road conditions for the state you are calling from can
be obtained by calling 5 1 1.


Jrb